sensor_id;sensor_type;location;lat;lon;timestamp;pressure;altitude;pressure_sealevel;temperature
42673;BMP280;28284;46.514;30.724;2023-09-30T00:01:54;101194.81;;;19.81
42673;BMP280;28284;46.514;30.724;2023-09-30T00:04:19;101192.56;;;19.76
42673;BMP280;28284;46.514;30.724;2023-09-30T00:06:44;101190.31;;;19.71
42673;BMP280;28284;46.514;30.724;2023-09-30T00:09:10;101199.41;;;19.68
42673;BMP280;28284;46.514;30.724;2023-09-30T00:11:36;101188.50;;;19.65
42673;BMP280;28284;46.514;30.724;2023-09-30T00:14:02;101186.59;;;19.62
42673;BMP280;28284;46.514;30.724;2023-09-30T00:16:27;101192.53;;;19.60
42673;BMP280;28284;46.514;30.724;2023-09-30T00:18:52;101189.06;;;19.56
42673;BMP280;28284;46.514;30.724;2023-09-30T00:21:19;101185.63;;;19.52
42673;BMP280;28284;46.514;30.724;2023-09-30T00:23:44;101181.31;;;19.51
42673;BMP280;28284;46.514;30.724;2023-09-30T00:26:09;101186.88;;;19.48
42673;BMP280;28284;46.514;30.724;2023-09-30T00:28:35;101182.97;;;19.45
42673;BMP280;28284;46.514;30.724;2023-09-30T00:31:00;101180.22;;;19.45
42673;BMP280;28284;46.514;30.724;2023-09-30T00:33:25;101186.13;;;19.47
42673;BMP280;28284;46.514;30.724;2023-09-30T00:35:50;101184.94;;;19.48
42673;BMP280;28284;46.514;30.724;2023-09-30T00:38:16;101181.38;;;19.48
42673;BMP280;28284;46.514;30.724;2023-09-30T00:40:48;101180.63;;;19.47
42673;BMP280;28284;46.514;30.724;2023-09-30T00:43:19;101174.75;;;19.45
42673;BMP280;28284;46.514;30.724;2023-09-30T00:45:45;101178.72;;;19.44
42673;BMP280;28284;46.514;30.724;2023-09-30T00:48:11;101177.59;;;19.42
42673;BMP280;28284;46.514;30.724;2023-09-30T00:50:36;101172.50;;;19.40
42673;BMP280;28284;46.514;30.724;2023-09-30T00:53:02;101174.91;;;19.38
42673;BMP280;28284;46.514;30.724;2023-09-30T00:55:28;101176.09;;;19.37
42673;BMP280;28284;46.514;30.724;2023-09-30T00:57:53;101178.13;;;19.34
42673;BMP280;28284;46.514;30.724;2023-09-30T01:00:18;101173.09;;;19.32
42673;BMP280;28284;46.514;30.724;2023-09-30T01:02:44;101172.75;;;19.30
42673;BMP280;28284;46.514;30.724;2023-09-30T01:05:09;101171.19;;;19.29
42673;BMP280;28284;46.514;30.724;2023-09-30T01:07:35;101175.88;;;19.29
42673;BMP280;28284;46.514;30.724;2023-09-30T01:10:01;101172.81;;;19.27
42673;BMP280;28284;46.514;30.724;2023-09-30T01:12:26;101167.38;;;19.23
42673;BMP280;28284;46.514;30.724;2023-09-30T01:14:56;101160.75;;;19.21
42673;BMP280;28284;46.514;30.724;2023-09-30T01:17:22;101169.47;;;19.16
42673;BMP280;28284;46.514;30.724;2023-09-30T01:19:47;101158.91;;;19.14
42673;BMP280;28284;46.514;30.724;2023-09-30T01:22:14;101172.28;;;19.12
42673;BMP280;28284;46.514;30.724;2023-09-30T01:24:41;101164.53;;;19.07
42673;BMP280;28284;46.514;30.724;2023-09-30T01:27:07;101170.88;;;19.04
42673;BMP280;28284;46.514;30.724;2023-09-30T01:29:32;101170.50;;;19.02
42673;BMP280;28284;46.514;30.724;2023-09-30T01:31:57;101163.88;;;19.00
42673;BMP280;28284;46.514;30.724;2023-09-30T01:34:23;101165.88;;;18.99
42673;BMP280;28284;46.514;30.724;2023-09-30T01:36:48;101163.88;;;19.00
42673;BMP280;28284;46.514;30.724;2023-09-30T01:39:14;101165.88;;;18.99
42673;BMP280;28284;46.514;30.724;2023-09-30T01:41:39;101158.03;;;18.98
42673;BMP280;28284;46.514;30.724;2023-09-30T01:44:05;101164.75;;;18.97
42673;BMP280;28284;46.514;30.724;2023-09-30T01:46:30;101165.16;;;18.95
42673;BMP280;28284;46.514;30.724;2023-09-30T01:48:56;101166.78;;;18.93
42673;BMP280;28284;46.514;30.724;2023-09-30T01:51:21;101162.88;;;18.90
42673;BMP280;28284;46.514;30.724;2023-09-30T01:53:49;101160.97;;;18.87
42673;BMP280;28284;46.514;30.724;2023-09-30T01:56:15;101154.34;;;18.85
42673;BMP280;28284;46.514;30.724;2023-09-30T01:58:40;101162.25;;;18.83
42673;BMP280;28284;46.514;30.724;2023-09-30T02:01:05;101157.25;;;18.78
42673;BMP280;28284;46.514;30.724;2023-09-30T02:03:30;101158.09;;;18.75
42673;BMP280;28284;46.514;30.724;2023-09-30T02:05:57;101154.97;;;18.73
42673;BMP280;28284;46.514;30.724;2023-09-30T02:08:23;101158.88;;;18.72
42673;BMP280;28284;46.514;30.724;2023-09-30T02:10:48;101153.41;;;18.72
42673;BMP280;28284;46.514;30.724;2023-09-30T02:13:13;101153.41;;;18.72
42673;BMP280;28284;46.514;30.724;2023-09-30T02:15:42;101159.69;;;18.73
42673;BMP280;28284;46.514;30.724;2023-09-30T02:18:07;101146.75;;;18.73
42673;BMP280;28284;46.514;30.724;2023-09-30T02:20:32;101146.31;;;18.74
42673;BMP280;28284;46.514;30.724;2023-09-30T02:22:58;101149.06;;;18.74
42673;BMP280;28284;46.514;30.724;2023-09-30T02:25:24;101151.81;;;18.74
42673;BMP280;28284;46.514;30.724;2023-09-30T02:27:50;101142.81;;;18.74
42673;BMP280;28284;46.514;30.724;2023-09-30T02:30:15;101148.69;;;18.73
42673;BMP280;28284;46.514;30.724;2023-09-30T02:32:41;101146.38;;;18.71
42673;BMP280;28284;46.514;30.724;2023-09-30T02:35:07;101152.28;;;18.70
42673;BMP280;28284;46.514;30.724;2023-09-30T02:37:33;101147.19;;;18.68
42673;BMP280;28284;46.514;30.724;2023-09-30T02:40:01;101151.13;;;18.67
42673;BMP280;28284;46.514;30.724;2023-09-30T02:42:26;101155.09;;;18.66
42673;BMP280;28284;46.514;30.724;2023-09-30T02:44:51;101150.78;;;18.65
42673;BMP280;28284;46.514;30.724;2023-09-30T02:47:16;101156.63;;;18.67
42673;BMP280;28284;46.514;30.724;2023-09-30T02:49:42;101149.66;;;18.63
42673;BMP280;28284;46.514;30.724;2023-09-30T02:52:07;101156.69;;;18.64
42673;BMP280;28284;46.514;30.724;2023-09-30T02:54:32;101150.78;;;18.65
42673;BMP280;28284;46.514;30.724;2023-09-30T02:56:58;101149.22;;;18.64
42673;BMP280;28284;46.514;30.724;2023-09-30T02:59:23;101155.91;;;18.63
42673;BMP280;28284;46.514;30.724;2023-09-30T03:01:48;101144.22;;;18.59
42673;BMP280;28284;46.514;30.724;2023-09-30T03:04:13;101152.13;;;18.57
42673;BMP280;28284;46.514;30.724;2023-09-30T03:06:39;101150.19;;;18.54
42673;BMP280;28284;46.514;30.724;2023-09-30T03:09:04;101152.59;;;18.52
42673;BMP280;28284;46.514;30.724;2023-09-30T03:11:30;101156.91;;;18.50
42673;BMP280;28284;46.514;30.724;2023-09-30T03:13:56;101148.34;;;18.48
42673;BMP280;28284;46.514;30.724;2023-09-30T03:16:22;101154.63;;;18.48
42673;BMP280;28284;46.514;30.724;2023-09-30T03:18:49;101149.13;;;18.48
42673;BMP280;28284;46.514;30.724;2023-09-30T03:21:17;101153.81;;;18.48
42673;BMP280;28284;46.514;30.724;2023-09-30T03:23:43;101147.59;;;18.47
42673;BMP280;28284;46.514;30.724;2023-09-30T03:26:08;101144.03;;;18.47
42673;BMP280;28284;46.514;30.724;2023-09-30T03:28:38;101144.47;;;18.45
42673;BMP280;28284;46.514;30.724;2023-09-30T03:31:03;101150.72;;;18.46
42673;BMP280;28284;46.514;30.724;2023-09-30T03:33:30;101144.84;;;18.47
42673;BMP280;28284;46.514;30.724;2023-09-30T03:35:55;101149.13;;;18.48
42673;BMP280;28284;46.514;30.724;2023-09-30T03:38:23;101147.59;;;18.47
42673;BMP280;28284;46.514;30.724;2023-09-30T03:40:49;101143.66;;;18.48
42673;BMP280;28284;46.514;30.724;2023-09-30T03:43:15;101145.59;;;18.48
42673;BMP280;28284;46.514;30.724;2023-09-30T03:45:40;101151.88;;;18.48
42673;BMP280;28284;46.514;30.724;2023-09-30T03:48:09;101149.91;;;18.49
42673;BMP280;28284;46.514;30.724;2023-09-30T03:50:35;101150.25;;;18.51
42673;BMP280;28284;46.514;30.724;2023-09-30T03:53:01;101158.41;;;18.54
42673;BMP280;28284;46.514;30.724;2023-09-30T03:55:27;101156.38;;;18.58
42673;BMP280;28284;46.514;30.724;2023-09-30T03:57:52;101162.94;;;18.64
42673;BMP280;28284;46.514;30.724;2023-09-30T04:00:17;101162.09;;;18.67
42673;BMP280;28284;46.514;30.724;2023-09-30T04:02:44;101157.34;;;18.71
42673;BMP280;28284;46.514;30.724;2023-09-30T04:05:13;101161.22;;;18.73
42673;BMP280;28284;46.514;30.724;2023-09-30T04:07:39;101160.31;;;18.80
42673;BMP280;28284;46.514;30.724;2023-09-30T04:10:04;101162.06;;;18.93
42673;BMP280;28284;46.514;30.724;2023-09-30T04:12:30;101159.63;;;19.18
42673;BMP280;28284;46.514;30.724;2023-09-30T04:14:57;101167.66;;;19.48
42673;BMP280;28284;46.514;30.724;2023-09-30T04:17:23;101170.84;;;19.82
42673;BMP280;28284;46.514;30.724;2023-09-30T04:19:48;101163.69;;;20.19
42673;BMP280;28284;46.514;30.724;2023-09-30T04:22:16;101168.91;;;20.61
42673;BMP280;28284;46.514;30.724;2023-09-30T04:24:42;101179.22;;;21.02
42673;BMP280;28284;46.514;30.724;2023-09-30T04:27:07;101167.00;;;21.43
42673;BMP280;28284;46.514;30.724;2023-09-30T04:29:32;101170.16;;;21.82
42673;BMP280;28284;46.514;30.724;2023-09-30T04:31:58;101167.25;;;22.23
42673;BMP280;28284;46.514;30.724;2023-09-30T04:34:23;101171.34;;;22.65
42673;BMP280;28284;46.514;30.724;2023-09-30T04:36:49;101179.66;;;23.07
42673;BMP280;28284;46.514;30.724;2023-09-30T04:39:14;101185.78;;;23.45
42673;BMP280;28284;46.514;30.724;2023-09-30T04:41:40;101182.28;;;23.84
42673;BMP280;28284;46.514;30.724;2023-09-30T04:44:08;101190.06;;;24.24
42673;BMP280;28284;46.514;30.724;2023-09-30T04:46:37;101196.56;;;24.66
42673;BMP280;28284;46.514;30.724;2023-09-30T04:49:08;101184.19;;;25.12
42673;BMP280;28284;46.514;30.724;2023-09-30T04:51:34;101203.47;;;25.56
42673;BMP280;28284;46.514;30.724;2023-09-30T04:53:59;101204.09;;;25.92
42673;BMP280;28284;46.514;30.724;2023-09-30T04:56:25;101203.50;;;26.35
42673;BMP280;28284;46.514;30.724;2023-09-30T04:58:50;101193.81;;;26.68
42673;BMP280;28284;46.514;30.724;2023-09-30T05:01:16;101204.78;;;27.15
42673;BMP280;28284;46.514;30.724;2023-09-30T05:03:43;101206.72;;;27.57
42673;BMP280;28284;46.514;30.724;2023-09-30T05:06:09;101219.75;;;28.00
42673;BMP280;28284;46.514;30.724;2023-09-30T05:08:34;101221.25;;;28.35
42673;BMP280;28284;46.514;30.724;2023-09-30T05:10:59;101224.44;;;28.73
42673;BMP280;28284;46.514;30.724;2023-09-30T05:13:25;101225.09;;;29.13
42673;BMP280;28284;46.514;30.724;2023-09-30T05:15:51;101241.59;;;29.47
42673;BMP280;28284;46.514;30.724;2023-09-30T05:18:16;101233.44;;;29.80
42673;BMP280;28284;46.514;30.724;2023-09-30T05:20:42;101233.38;;;30.21
42673;BMP280;28284;46.514;30.724;2023-09-30T05:23:07;101240.84;;;30.46
42673;BMP280;28284;46.514;30.724;2023-09-30T05:25:32;101240.59;;;30.61
42673;BMP280;28284;46.514;30.724;2023-09-30T05:27:58;101235.81;;;30.88
42673;BMP280;28284;46.514;30.724;2023-09-30T05:30:23;101235.56;;;31.13
42673;BMP280;28284;46.514;30.724;2023-09-30T05:32:49;101240.38;;;31.35
42673;BMP280;28284;46.514;30.724;2023-09-30T05:35:17;101241.63;;;31.50
42673;BMP280;28284;46.514;30.724;2023-09-30T05:37:43;101239.78;;;31.69
42673;BMP280;28284;46.514;30.724;2023-09-30T05:40:10;101245.81;;;31.95
42673;BMP280;28284;46.514;30.724;2023-09-30T05:42:47;101249.75;;;32.26
42673;BMP280;28284;46.514;30.724;2023-09-30T05:45:12;101260.34;;;32.44
42673;BMP280;28284;46.514;30.724;2023-09-30T05:47:38;101250.28;;;32.65
42673;BMP280;28284;46.514;30.724;2023-09-30T05:50:03;101254.72;;;32.84
42673;BMP280;28284;46.514;30.724;2023-09-30T05:52:29;101251.97;;;33.08
42673;BMP280;28284;46.514;30.724;2023-09-30T05:54:54;101255.63;;;33.21
42673;BMP280;28284;46.514;30.724;2023-09-30T05:57:19;101257.59;;;33.32
42673;BMP280;28284;46.514;30.724;2023-09-30T05:59:45;101255.31;;;33.54
42673;BMP280;28284;46.514;30.724;2023-09-30T06:02:11;101254.63;;;33.72
42673;BMP280;28284;46.514;30.724;2023-09-30T06:04:37;101251.38;;;33.86
42673;BMP280;28284;46.514;30.724;2023-09-30T06:07:02;101250.47;;;33.96
42673;BMP280;28284;46.514;30.724;2023-09-30T06:09:27;101259.72;;;34.10
42673;BMP280;28284;46.514;30.724;2023-09-30T06:11:55;101256.38;;;34.29
42673;BMP280;28284;46.514;30.724;2023-09-30T06:14:20;101257.03;;;34.54
42673;BMP280;28284;46.514;30.724;2023-09-30T06:16:46;101260.78;;;34.25
42673;BMP280;28284;46.514;30.724;2023-09-30T06:19:12;101258.09;;;33.78
42673;BMP280;28284;46.514;30.724;2023-09-30T06:21:38;101262.00;;;32.98
42673;BMP280;28284;46.514;30.724;2023-09-30T06:24:04;101249.53;;;32.19
42673;BMP280;28284;46.514;30.724;2023-09-30T06:26:30;101249.75;;;31.43
42673;BMP280;28284;46.514;30.724;2023-09-30T06:28:55;101247.25;;;31.01
42673;BMP280;28284;46.514;30.724;2023-09-30T06:31:21;101242.94;;;30.84
42673;BMP280;28284;46.514;30.724;2023-09-30T06:33:48;101240.34;;;30.64
42673;BMP280;28284;46.514;30.724;2023-09-30T06:36:13;101241.09;;;30.59
42673;BMP280;28284;46.514;30.724;2023-09-30T06:38:39;101247.44;;;30.43
42673;BMP280;28284;46.514;30.724;2023-09-30T06:41:04;101242.25;;;30.20
42673;BMP280;28284;46.514;30.724;2023-09-30T06:43:30;101242.34;;;30.47
42673;BMP280;28284;46.514;30.724;2023-09-30T06:45:55;101235.75;;;30.50
42673;BMP280;28284;46.514;30.724;2023-09-30T06:48:21;101241.81;;;30.38
42673;BMP280;28284;46.514;30.724;2023-09-30T06:50:47;101233.53;;;30.02
42673;BMP280;28284;46.514;30.724;2023-09-30T06:53:17;101248.38;;;30.24
42673;BMP280;28284;46.514;30.724;2023-09-30T06:55:42;101243.19;;;30.75
42673;BMP280;28284;46.514;30.724;2023-09-30T06:58:08;101241.41;;;30.72
42673;BMP280;28284;46.514;30.724;2023-09-30T07:00:35;101248.28;;;31.09
42673;BMP280;28284;46.514;30.724;2023-09-30T07:03:01;101247.50;;;31.36
42673;BMP280;28284;46.514;30.724;2023-09-30T07:05:26;101242.66;;;31.47
42673;BMP280;28284;46.514;30.724;2023-09-30T07:07:53;101242.63;;;31.58
42673;BMP280;28284;46.514;30.724;2023-09-30T07:10:18;101242.47;;;32.02
42673;BMP280;28284;46.514;30.724;2023-09-30T07:12:43;101249.09;;;32.49
42673;BMP280;28284;46.514;30.724;2023-09-30T07:15:09;101252.59;;;32.95
42673;BMP280;28284;46.514;30.724;2023-09-30T07:17:34;101247.63;;;33.07
42673;BMP280;28284;46.514;30.724;2023-09-30T07:20:00;101256.00;;;32.83
42673;BMP280;28284;46.514;30.724;2023-09-30T07:22:25;101250.03;;;32.63
42673;BMP280;28284;46.514;30.724;2023-09-30T07:24:51;101243.13;;;32.64
42673;BMP280;28284;46.514;30.724;2023-09-30T07:27:16;101255.72;;;32.87
42673;BMP280;28284;46.514;30.724;2023-09-30T07:29:41;101246.44;;;32.97
42673;BMP280;28284;46.514;30.724;2023-09-30T07:32:07;101248.19;;;33.29
42673;BMP280;28284;46.514;30.724;2023-09-30T07:34:32;101243.28;;;33.35
42673;BMP280;28284;46.514;30.724;2023-09-30T07:36:57;101247.78;;;33.43
42673;BMP280;28284;46.514;30.724;2023-09-30T07:39:23;101248.00;;;33.22
42673;BMP280;28284;46.514;30.724;2023-09-30T07:41:48;101254.25;;;32.80
42673;BMP280;28284;46.514;30.724;2023-09-30T07:44:13;101247.31;;;32.52
42673;BMP280;28284;46.514;30.724;2023-09-30T07:46:39;101242.97;;;32.51
42673;BMP280;28284;46.514;30.724;2023-09-30T07:49:04;101248.75;;;32.64
42673;BMP280;28284;46.514;30.724;2023-09-30T07:51:32;101252.41;;;32.88
42673;BMP280;28284;46.514;30.724;2023-09-30T07:53:57;101259.03;;;33.14
42673;BMP280;28284;46.514;30.724;2023-09-30T07:56:22;101253.47;;;33.38
42673;BMP280;28284;46.514;30.724;2023-09-30T07:58:48;101267.97;;;33.42
42673;BMP280;28284;46.514;30.724;2023-09-30T08:01:14;101259.72;;;33.49
42673;BMP280;28284;46.514;30.724;2023-09-30T08:03:40;101258.44;;;33.50
42673;BMP280;28284;46.514;30.724;2023-09-30T08:06:06;101273.84;;;33.38
42673;BMP280;28284;46.514;30.724;2023-09-30T08:08:32;101265.34;;;33.26
42673;BMP280;28284;46.514;30.724;2023-09-30T08:10:57;101266.19;;;33.15
42673;BMP280;28284;46.514;30.724;2023-09-30T08:13:23;101255.81;;;32.76
42673;BMP280;28284;46.514;30.724;2023-09-30T08:15:51;101254.81;;;32.73
42673;BMP280;28284;46.514;30.724;2023-09-30T08:18:18;101253.88;;;32.60
42673;BMP280;28284;46.514;30.724;2023-09-30T08:20:43;101250.28;;;32.59
42673;BMP280;28284;46.514;30.724;2023-09-30T08:23:09;101250.84;;;32.58
42673;BMP280;28284;46.514;30.724;2023-09-30T08:25:34;101257.63;;;32.73
42673;BMP280;28284;46.514;30.724;2023-09-30T08:27:59;101249.69;;;32.72
42673;BMP280;28284;46.514;30.724;2023-09-30T08:30:25;101253.06;;;32.65
42673;BMP280;28284;46.514;30.724;2023-09-30T08:32:51;101252.06;;;32.62
42673;BMP280;28284;46.514;30.724;2023-09-30T08:35:16;101246.75;;;32.53
42673;BMP280;28284;46.514;30.724;2023-09-30T08:37:41;101243.84;;;32.35
42673;BMP280;28284;46.514;30.724;2023-09-30T08:40:07;101236.75;;;32.23
42673;BMP280;28284;46.514;30.724;2023-09-30T08:42:34;101242.56;;;32.31
42673;BMP280;28284;46.514;30.724;2023-09-30T08:45:01;101238.22;;;32.35
42673;BMP280;28284;46.514;30.724;2023-09-30T08:47:26;101242.88;;;32.27
42673;BMP280;28284;46.514;30.724;2023-09-30T08:49:56;101243.69;;;32.17
42673;BMP280;28284;46.514;30.724;2023-09-30T08:52:25;101237.31;;;32.11
42673;BMP280;28284;46.514;30.724;2023-09-30T08:54:51;101235.31;;;32.06
42673;BMP280;28284;46.514;30.724;2023-09-30T08:57:17;101231.56;;;31.87
42673;BMP280;28284;46.514;30.724;2023-09-30T08:59:44;101234.41;;;31.82
42673;BMP280;28284;46.514;30.724;2023-09-30T09:02:11;101225.28;;;31.65
42673;BMP280;28284;46.514;30.724;2023-09-30T09:04:36;101217.94;;;31.51
42673;BMP280;28284;46.514;30.724;2023-09-30T09:07:02;101233.00;;;31.37
42673;BMP280;28284;46.514;30.724;2023-09-30T09:09:28;101223.06;;;31.20
42673;BMP280;28284;46.514;30.724;2023-09-30T09:11:53;101221.56;;;31.13
42673;BMP280;28284;46.514;30.724;2023-09-30T09:14:18;101214.19;;;31.00
42673;BMP280;28284;46.514;30.724;2023-09-30T09:16:50;101218.00;;;30.91
42673;BMP280;28284;46.514;30.724;2023-09-30T09:19:17;101213.66;;;30.85
42673;BMP280;28284;46.514;30.724;2023-09-30T09:21:59;101225.13;;;30.81
42673;BMP280;28284;46.514;30.724;2023-09-30T09:26:52;101220.75;;;30.64
42673;BMP280;28284;46.514;30.724;2023-09-30T09:29:28;101212.56;;;30.33
42673;BMP280;28284;46.514;30.724;2023-09-30T09:31:53;101207.69;;;30.17
42673;BMP280;28284;46.514;30.724;2023-09-30T09:34:31;101203.34;;;30.06
42673;BMP280;28284;46.514;30.724;2023-09-30T09:36:56;101204.06;;;30.06
42673;BMP280;28284;46.514;30.724;2023-09-30T09:39:31;101205.59;;;30.07
42673;BMP280;28284;46.514;30.724;2023-09-30T09:41:56;101202.28;;;29.98
42673;BMP280;28284;46.514;30.724;2023-09-30T09:44:23;101200.19;;;29.87
42673;BMP280;28284;46.514;30.724;2023-09-30T09:46:49;101211.13;;;29.85
42673;BMP280;28284;46.514;30.724;2023-09-30T09:49:18;101203.16;;;29.73
42673;BMP280;28284;46.514;30.724;2023-09-30T09:51:47;101203.56;;;29.55
42673;BMP280;28284;46.514;30.724;2023-09-30T09:54:13;101199.84;;;29.27
42673;BMP280;28284;46.514;30.724;2023-09-30T09:56:39;101195.34;;;29.05
42673;BMP280;28284;46.514;30.724;2023-09-30T09:59:04;101195.94;;;28.89
42673;BMP280;28284;46.514;30.724;2023-09-30T10:01:33;101196.81;;;28.75
42673;BMP280;28284;46.514;30.724;2023-09-30T10:04:00;101192.56;;;28.54
42673;BMP280;28284;46.514;30.724;2023-09-30T10:06:25;101186.09;;;28.43
42673;BMP280;28284;46.514;30.724;2023-09-30T10:08:51;101191.22;;;28.24
42673;BMP280;28284;46.514;30.724;2023-09-30T10:11:18;101191.84;;;28.14
42673;BMP280;28284;46.514;30.724;2023-09-30T10:13:56;101185.31;;;27.97
42673;BMP280;28284;46.514;30.724;2023-09-30T10:19:09;101181.94;;;27.73
42673;BMP280;28284;46.514;30.724;2023-09-30T10:21:34;101183.59;;;27.66
42673;BMP280;28284;46.514;30.724;2023-09-30T10:26:44;101174.25;;;27.34
42673;BMP280;28284;46.514;30.724;2023-09-30T10:29:09;101175.59;;;27.24
42673;BMP280;28284;46.514;30.724;2023-09-30T10:31:35;101173.66;;;27.30
42673;BMP280;28284;46.514;30.724;2023-09-30T10:34:17;101174.63;;;27.27
42673;BMP280;28284;46.514;30.724;2023-09-30T10:36:43;101172.94;;;27.16
42673;BMP280;28284;46.514;30.724;2023-09-30T10:39:12;101179.09;;;27.05
42673;BMP280;28284;46.514;30.724;2023-09-30T10:46:55;101170.13;;;26.72
42673;BMP280;28284;46.514;30.724;2023-09-30T10:51:49;101159.28;;;26.60
42673;BMP280;28284;46.514;30.724;2023-09-30T10:54:16;101159.47;;;26.57
42673;BMP280;28284;46.514;30.724;2023-09-30T10:56:46;101152.88;;;26.54
42673;BMP280;28284;46.514;30.724;2023-09-30T10:59:17;101155.06;;;26.50
42673;BMP280;28284;46.514;30.724;2023-09-30T11:01:43;101157.56;;;26.48
42673;BMP280;28284;46.514;30.724;2023-09-30T11:04:08;101158.78;;;26.47
42673;BMP280;28284;46.514;30.724;2023-09-30T11:06:34;101153.72;;;26.46
42673;BMP280;28284;46.514;30.724;2023-09-30T11:09:00;101157.34;;;26.52
42673;BMP280;28284;46.514;30.724;2023-09-30T11:11:38;101149.31;;;26.54
42673;BMP280;28284;46.514;30.724;2023-09-30T11:16:44;101161.78;;;26.72
42673;BMP280;28284;46.514;30.724;2023-09-30T11:19:10;101145.97;;;26.78
42673;BMP280;28284;46.514;30.724;2023-09-30T11:21:35;101153.94;;;26.85
42673;BMP280;28284;46.514;30.724;2023-09-30T11:24:01;101147.41;;;26.88
42673;BMP280;28284;46.514;30.724;2023-09-30T11:26:32;101149.25;;;26.91
42673;BMP280;28284;46.514;30.724;2023-09-30T11:29:05;101153.94;;;27.00
42673;BMP280;28284;46.514;30.724;2023-09-30T11:31:30;101150.88;;;26.98
42673;BMP280;28284;46.514;30.724;2023-09-30T11:33:59;101136.41;;;27.08
42673;BMP280;28284;46.514;30.724;2023-09-30T11:36:28;101131.50;;;27.18
42673;BMP280;28284;46.514;30.724;2023-09-30T11:38:54;101138.75;;;27.29
42673;BMP280;28284;46.514;30.724;2023-09-30T11:41:19;101139.03;;;27.31
42673;BMP280;28284;46.514;30.724;2023-09-30T11:43:58;101139.88;;;27.37
42673;BMP280;28284;46.514;30.724;2023-09-30T11:46:25;101120.41;;;27.37
42673;BMP280;28284;46.514;30.724;2023-09-30T11:49:02;101133.19;;;27.29
42673;BMP280;28284;46.514;30.724;2023-09-30T11:51:28;101126.97;;;27.20
42673;BMP280;28284;46.514;30.724;2023-09-30T11:53:54;101127.19;;;27.17
42673;BMP280;28284;46.514;30.724;2023-09-30T11:56:20;101131.50;;;27.18
42673;BMP280;28284;46.514;30.724;2023-09-30T11:58:45;101125.94;;;27.18
42673;BMP280;28284;46.514;30.724;2023-09-30T12:01:15;101121.22;;;27.23
42673;BMP280;28284;46.514;30.724;2023-09-30T12:03:41;101123.59;;;27.30
42673;BMP280;28284;46.514;30.724;2023-09-30T12:06:07;101126.66;;;27.32
42673;BMP280;28284;46.514;30.724;2023-09-30T12:08:33;101122.22;;;27.40
42673;BMP280;28284;46.514;30.724;2023-09-30T12:10:58;101111.56;;;27.53
42673;BMP280;28284;46.514;30.724;2023-09-30T12:13:24;101116.28;;;27.67
42673;BMP280;28284;46.514;30.724;2023-09-30T12:15:50;101115.16;;;27.79
42673;BMP280;28284;46.514;30.724;2023-09-30T12:18:18;101113.72;;;27.83
42673;BMP280;28284;46.514;30.724;2023-09-30T12:20:48;101120.16;;;27.75
42673;BMP280;28284;46.514;30.724;2023-09-30T12:23:14;101107.47;;;27.69
42673;BMP280;28284;46.514;30.724;2023-09-30T12:25:39;101114.00;;;27.66
42673;BMP280;28284;46.514;30.724;2023-09-30T12:28:04;101103.91;;;27.68
42673;BMP280;28284;46.514;30.724;2023-09-30T12:30:30;101102.22;;;27.76
42673;BMP280;28284;46.514;30.724;2023-09-30T12:32:57;101096.59;;;27.71
42673;BMP280;28284;46.514;30.724;2023-09-30T12:35:22;101105.00;;;27.76
42673;BMP280;28284;46.514;30.724;2023-09-30T12:37:47;101093.47;;;27.83
42673;BMP280;28284;46.514;30.724;2023-09-30T12:40:13;101097.28;;;27.85
42673;BMP280;28284;46.514;30.724;2023-09-30T12:42:42;101094.00;;;27.87
42673;BMP280;28284;46.514;30.724;2023-09-30T12:45:07;101085.44;;;27.90
42673;BMP280;28284;46.514;30.724;2023-09-30T12:47:33;101085.50;;;27.96
42673;BMP280;28284;46.514;30.724;2023-09-30T12:49:58;101085.78;;;27.98
42673;BMP280;28284;46.514;30.724;2023-09-30T12:52:23;101082.25;;;27.97
42673;BMP280;28284;46.514;30.724;2023-09-30T12:54:49;101082.72;;;27.96
42673;BMP280;28284;46.514;30.724;2023-09-30T12:57:14;101076.88;;;27.94
42673;BMP280;28284;46.514;30.724;2023-09-30T12:59:42;101074.03;;;27.88
42673;BMP280;28284;46.514;30.724;2023-09-30T13:02:09;101067.38;;;27.80
42673;BMP280;28284;46.514;30.724;2023-09-30T13:04:34;101061.97;;;27.77
42673;BMP280;28284;46.514;30.724;2023-09-30T13:07:00;101075.06;;;27.71
42673;BMP280;28284;46.514;30.724;2023-09-30T13:09:25;101060.56;;;27.62
42673;BMP280;28284;46.514;30.724;2023-09-30T13:11:50;101062.47;;;27.56
42673;BMP280;28284;46.514;30.724;2023-09-30T13:14:16;101059.34;;;27.48
42673;BMP280;28284;46.514;30.724;2023-09-30T13:16:41;101054.28;;;27.47
42673;BMP280;28284;46.514;30.724;2023-09-30T13:19:07;101061.25;;;27.42
42673;BMP280;28284;46.514;30.724;2023-09-30T13:21:32;101055.69;;;27.42
42673;BMP280;28284;46.514;30.724;2023-09-30T13:23:57;101054.69;;;27.40
42673;BMP280;28284;46.514;30.724;2023-09-30T13:26:23;101055.91;;;27.39
42673;BMP280;28284;46.514;30.724;2023-09-30T13:28:49;101059.75;;;27.41
42673;BMP280;28284;46.514;30.724;2023-09-30T13:31:14;101054.94;;;27.42
42673;BMP280;28284;46.514;30.724;2023-09-30T13:33:39;101049.50;;;27.47
42673;BMP280;28284;46.514;30.724;2023-09-30T13:36:05;101042.94;;;27.50
42673;BMP280;28284;46.514;30.724;2023-09-30T13:38:30;101043.22;;;27.52
42673;BMP280;28284;46.514;30.724;2023-09-30T13:40:55;101035.69;;;27.58
42673;BMP280;28284;46.514;30.724;2023-09-30T13:43:21;101031.47;;;27.63
42673;BMP280;28284;46.514;30.724;2023-09-30T13:45:46;101029.22;;;27.67
42673;BMP280;28284;46.514;30.724;2023-09-30T13:48:11;101027.00;;;27.71
42673;BMP280;28284;46.514;30.724;2023-09-30T13:50:37;101028.28;;;27.75
42673;BMP280;28284;46.514;30.724;2023-09-30T13:53:02;101023.28;;;27.79
42673;BMP280;28284;46.514;30.724;2023-09-30T13:55:27;101019.72;;;27.78
42673;BMP280;28284;46.514;30.724;2023-09-30T13:57:53;101022.06;;;27.80